createdAt,value
2022-12-19T00:00:05.407Z,90.78
2022-12-19T00:02:39.699Z,90.67
2022-12-19T00:05:07.333Z,91.01
2022-12-19T00:07:34.342Z,90.15
2022-12-19T00:10:01.452Z,90.71
2022-12-19T00:12:30.893Z,90.31
2022-12-19T00:14:57.915Z,91.09
2022-12-19T00:17:26.625Z,90.80
2022-12-19T00:19:53.591Z,90.46
2022-12-19T00:22:20.601Z,91.03
2022-12-19T00:24:48.574Z,90.46
2022-12-19T00:27:15.571Z,91.00
2022-12-19T00:29:42.524Z,90.36
2022-12-19T00:32:09.533Z,90.08
2022-12-19T00:34:42.170Z,90.97
2022-12-19T00:37:09.132Z,90.64
2022-12-19T00:39:36.464Z,90.21
2022-12-19T00:42:03.359Z,89.90
2022-12-19T00:44:30.266Z,90.41
2022-12-19T00:46:58.945Z,90.98
2022-12-19T00:49:25.961Z,90.65
2022-12-19T00:51:52.892Z,90.50
2022-12-19T00:54:20.060Z,90.98
2022-12-19T00:56:47.418Z,91.01
2022-12-19T00:59:14.502Z,90.30
2022-12-19T01:01:44.432Z,90.93
2022-12-19T01:04:33.537Z,91.30
2022-12-19T01:07:03.252Z,90.54
2022-12-19T01:09:35.507Z,90.95
2022-12-19T01:12:24.509Z,90.02
2022-12-19T01:14:54.645Z,90.42
2022-12-19T01:17:24.718Z,90.51
2022-12-19T01:19:53.375Z,90.28
2022-12-19T01:22:20.398Z,90.50
2022-12-19T01:24:47.397Z,90.91
2022-12-19T01:27:15.695Z,90.92
2022-12-19T01:29:51.827Z,90.53
2022-12-19T01:32:20.468Z,91.01
2022-12-19T01:34:47.491Z,91.26
2022-12-19T01:37:18.114Z,91.34
2022-12-19T01:39:46.089Z,91.59
2022-12-19T01:42:23.423Z,91.95
2022-12-19T01:45:13.413Z,91.75
2022-12-19T01:47:51.216Z,92.73
2022-12-19T01:50:31.205Z,93.94
2022-12-19T01:52:59.735Z,94.53
2022-12-19T01:55:26.915Z,95.64
2022-12-19T01:57:55.569Z,95.46
2022-12-19T02:00:22.845Z,96.12
2022-12-19T02:02:59.588Z,96.96
2022-12-19T02:05:26.695Z,96.96
2022-12-19T02:07:54.456Z,97.35
2022-12-19T02:10:21.545Z,97.17
2022-12-19T02:12:49.787Z,96.83
2022-12-19T02:15:18.189Z,96.88
2022-12-19T02:17:54.661Z,97.01
2022-12-19T02:20:39.562Z,97.35
2022-12-19T02:23:10.197Z,97.44
2022-12-19T02:26:06.560Z,98.08
2022-12-19T02:28:53.678Z,97.77
2022-12-19T02:31:46.911Z,97.73
2022-12-19T02:34:44.553Z,97.70
2022-12-19T02:37:21.099Z,98.19
2022-12-19T02:39:55.832Z,98.26
2022-12-19T02:42:31.981Z,97.91
2022-12-19T02:45:04.310Z,97.87
2022-12-19T02:47:32.980Z,98.21
2022-12-19T02:50:02.052Z,98.04
2022-12-19T02:52:30.289Z,98.17
2022-12-19T02:55:04.592Z,98.05
2022-12-19T02:57:39.444Z,98.00
2022-12-19T03:00:17.860Z,97.51
2022-12-19T03:03:12.522Z,96.71
2022-12-19T03:06:05.884Z,97.01
2022-12-19T03:08:35.932Z,96.74
2022-12-19T03:11:09.245Z,96.63
2022-12-19T03:13:44.563Z,96.97
2022-12-19T03:16:14.281Z,96.80
2022-12-19T03:18:42.228Z,97.02
2022-12-19T03:21:34.996Z,96.73
2022-12-19T03:24:03.916Z,96.26
2022-12-19T03:26:38.326Z,96.54
2022-12-19T03:29:12.828Z,95.96
2022-12-19T03:31:40.643Z,96.10
2022-12-19T03:34:17.551Z,96.54
2022-12-19T03:36:49.035Z,96.17
2022-12-19T03:39:18.054Z,96.69
2022-12-19T03:42:03.628Z,96.42
2022-12-19T03:44:34.560Z,96.35
2022-12-19T03:47:13.796Z,96.48
2022-12-19T03:49:41.014Z,96.94
2022-12-19T03:52:22.712Z,96.91
2022-12-19T03:55:01.427Z,97.02
2022-12-19T03:57:41.562Z,97.40
2022-12-19T04:00:13.472Z,96.82
2022-12-19T04:02:59.784Z,97.16
2022-12-19T04:05:28.933Z,97.17
2022-12-19T04:08:01.213Z,97.13
2022-12-19T04:10:29.240Z,96.83
2022-12-19T04:13:04.779Z,96.61
2022-12-19T04:15:40.066Z,97.25
2022-12-19T04:18:11.065Z,97.14
2022-12-19T04:20:41.561Z,97.10
2022-12-19T04:23:31.526Z,97.09
2022-12-19T04:26:03.362Z,97.23
2022-12-19T04:28:39.441Z,97.23
2022-12-19T04:31:07.803Z,96.88
2022-12-19T04:33:34.752Z,97.30
2022-12-19T04:36:01.843Z,97.31
2022-12-19T04:38:28.880Z,97.54
2022-12-19T04:40:56.767Z,97.90
2022-12-19T04:43:23.884Z,97.81
2022-12-19T04:45:56.988Z,97.50
2022-12-19T04:48:24.934Z,97.46
2022-12-19T04:50:52.043Z,97.57
2022-12-19T04:53:19.068Z,97.92
2022-12-19T04:55:46.111Z,97.39
2022-12-19T04:58:15.347Z,97.79
2022-12-19T05:00:46.038Z,97.68
2022-12-19T05:03:13.002Z,97.89
2022-12-19T05:05:40.562Z,97.73
2022-12-19T05:08:07.919Z,97.63
2022-12-19T05:10:36.843Z,97.62
2022-12-19T05:13:03.883Z,97.80
2022-12-19T05:15:30.876Z,97.34
2022-12-19T05:17:58.107Z,97.60
2022-12-19T05:20:25.064Z,97.81
2022-12-19T05:22:52.125Z,97.47
2022-12-19T05:25:19.150Z,97.35
2022-12-19T05:27:46.197Z,97.13
2022-12-19T05:30:13.551Z,97.15
2022-12-19T05:32:40.596Z,97.46
2022-12-19T05:35:08.269Z,97.26
2022-12-19T05:37:35.544Z,97.46
2022-12-19T05:40:02.751Z,97.10
2022-12-19T05:42:30.501Z,97.43
2022-12-19T05:44:58.098Z,97.06
2022-12-19T05:47:25.289Z,97.28
2022-12-19T05:49:52.222Z,97.67
2022-12-19T05:52:19.143Z,97.47
2022-12-19T05:54:46.191Z,97.57
2022-12-19T05:57:13.226Z,97.69
2022-12-19T05:59:40.265Z,96.54
2022-12-19T06:02:07.421Z,96.76
2022-12-19T06:04:37.766Z,96.65
2022-12-19T06:07:05.625Z,96.79
2022-12-19T06:09:34.797Z,96.51
2022-12-19T06:12:01.937Z,96.65
2022-12-19T06:14:28.895Z,96.37
2022-12-19T06:16:55.995Z,96.86
2022-12-19T06:19:23.514Z,96.55
2022-12-19T06:21:51.014Z,96.15
2022-12-19T06:24:18.209Z,96.11
2022-12-19T06:26:48.295Z,95.76
2022-12-19T06:29:15.223Z,95.43
2022-12-19T06:31:42.271Z,95.50
2022-12-19T06:34:22.084Z,96.39
2022-12-19T06:37:00.514Z,95.87
2022-12-19T06:39:29.971Z,95.92
2022-12-19T06:42:15.426Z,95.54
2022-12-19T06:44:43.514Z,95.19
2022-12-19T06:47:10.588Z,95.96
2022-12-19T06:49:37.543Z,95.92
2022-12-19T06:52:09.025Z,96.37
2022-12-19T06:54:36.273Z,95.99
2022-12-19T06:57:03.285Z,94.73
2022-12-19T06:59:30.363Z,94.74
2022-12-19T07:02:01.994Z,94.96
2022-12-19T07:04:52.662Z,94.49
2022-12-19T07:07:19.819Z,94.67
2022-12-19T07:09:46.902Z,94.15
2022-12-19T07:12:14.013Z,95.09
2022-12-19T07:14:40.977Z,94.70
2022-12-19T07:17:08.040Z,95.18
2022-12-19T07:19:35.653Z,95.42
2022-12-19T07:22:04.184Z,95.64
2022-12-19T07:24:31.946Z,95.28
2022-12-19T07:27:01.767Z,95.03
2022-12-19T07:29:28.792Z,93.71
2022-12-19T07:31:55.837Z,93.62
2022-12-19T07:34:22.987Z,93.74
2022-12-19T07:36:53.024Z,93.99
2022-12-19T07:39:20.046Z,94.61
2022-12-19T07:41:47.084Z,94.61
2022-12-19T07:44:16.606Z,94.88
2022-12-19T07:46:43.832Z,93.82
2022-12-19T07:49:10.815Z,94.57
2022-12-19T07:51:37.811Z,94.18
2022-12-19T07:54:07.748Z,94.48
2022-12-19T07:56:34.756Z,95.06
2022-12-19T07:59:01.925Z,93.84
2022-12-19T08:01:29.600Z,94.82
2022-12-19T08:03:58.204Z,94.94
2022-12-19T08:06:26.655Z,94.37
2022-12-19T08:08:53.837Z,94.70
2022-12-19T08:11:26.715Z,94.30
2022-12-19T08:13:54.540Z,94.06
2022-12-19T08:16:22.700Z,94.43
2022-12-19T08:18:49.757Z,94.72
2022-12-19T08:21:16.718Z,95.09
2022-12-19T08:23:43.731Z,95.07
2022-12-19T08:26:13.244Z,95.08
2022-12-19T08:28:40.713Z,95.13
2022-12-19T08:31:09.620Z,94.40
2022-12-19T08:33:37.009Z,94.85
2022-12-19T08:36:09.784Z,94.96
2022-12-19T08:38:37.388Z,94.90
2022-12-19T08:41:04.556Z,95.65
2022-12-19T08:43:32.697Z,95.33
2022-12-19T08:45:59.923Z,95.29
2022-12-19T08:48:27.477Z,95.28
2022-12-19T08:50:57.158Z,95.37
2022-12-19T08:53:26.611Z,95.39
2022-12-19T08:55:58.583Z,94.64
2022-12-19T08:58:26.744Z,94.81
2022-12-19T09:00:57.584Z,94.16
2022-12-19T09:03:26.370Z,94.05
2022-12-19T09:06:07.948Z,94.19
2022-12-19T09:08:38.654Z,94.23
2022-12-19T09:11:09.083Z,94.80
2022-12-19T09:13:37.587Z,94.17
2022-12-19T09:16:06.264Z,94.32
2022-12-19T09:18:33.975Z,94.47
2022-12-19T09:21:01.693Z,94.86
2022-12-19T09:23:31.815Z,95.06
2022-12-19T09:26:05.177Z,94.33
2022-12-19T09:28:32.316Z,94.45
2022-12-19T09:31:02.050Z,94.67
2022-12-19T09:33:31.337Z,94.44
2022-12-19T09:35:59.006Z,94.16
2022-12-19T09:38:27.131Z,93.80
2022-12-19T09:41:31.895Z,93.79
2022-12-19T09:44:05.234Z,94.26
2022-12-19T09:46:56.362Z,94.16
2022-12-19T09:49:26.100Z,94.65
2022-12-19T09:52:21.289Z,94.68
2022-12-19T09:55:03.419Z,94.13
2022-12-19T09:57:58.114Z,94.41
2022-12-19T10:00:36.416Z,94.43
2022-12-19T10:03:13.519Z,94.24
2022-12-19T10:07:09.304Z,94.52
2022-12-19T10:08:39.702Z,94.51
2022-12-19T10:12:38.463Z,94.46
2022-12-19T10:14:34.862Z,94.73
2022-12-19T10:17:29.533Z,94.20
2022-12-19T10:20:25.525Z,95.15
2022-12-19T10:23:23.384Z,94.21
2022-12-19T10:25:55.215Z,94.90
2022-12-19T10:28:50.090Z,94.35
2022-12-19T10:31:34.210Z,94.57
2022-12-19T10:34:21.522Z,95.16
2022-12-19T10:40:10.451Z,94.81
2022-12-19T10:42:48.825Z,95.06
2022-12-19T10:45:19.480Z,95.04
2022-12-19T10:47:57.624Z,95.65
2022-12-19T10:50:29.555Z,95.18
2022-12-19T10:53:08.209Z,95.67
2022-12-19T10:55:42.855Z,95.15
2022-12-19T10:58:30.274Z,95.69
2022-12-19T11:01:00.177Z,96.05
2022-12-19T11:03:27.877Z,95.31
2022-12-19T11:05:59.193Z,95.29
2022-12-19T11:08:28.860Z,95.21
2022-12-19T11:13:00.328Z,95.75
2022-12-19T11:19:23.944Z,96.12
2022-12-19T11:22:06.299Z,95.49
2022-12-19T11:29:37.840Z,95.42
2022-12-19T11:29:42.226Z,96.41
2022-12-19T11:30:36.477Z,95.35
2022-12-19T11:30:41.365Z,96.17
2022-12-19T11:34:19.435Z,96.12
2022-12-19T11:36:52.795Z,95.69
2022-12-19T11:39:33.158Z,95.60
2022-12-19T11:42:16.897Z,96.21
2022-12-19T11:44:53.867Z,96.66
2022-12-19T11:47:38.463Z,95.59
2022-12-19T11:50:26.882Z,95.41
2022-12-19T11:53:19.111Z,96.30
2022-12-19T11:56:01.669Z,96.21
2022-12-19T11:58:30.188Z,96.21
2022-12-19T12:01:24.146Z,95.56
2022-12-19T12:04:02.517Z,95.11
2022-12-19T12:06:34.930Z,95.50
2022-12-19T12:12:43.414Z,95.52
2022-12-19T12:21:24.966Z,95.40
2022-12-19T12:31:10.433Z,94.95
2022-12-19T12:31:12.902Z,95.25
2022-12-19T12:31:19.470Z,94.01
2022-12-19T12:31:21.671Z,94.69
2022-12-19T12:31:39.616Z,94.77
2022-12-19T12:35:38.454Z,94.08
2022-12-19T12:41:45.573Z,95.28
2022-12-19T12:44:12.978Z,95.14
2022-12-19T12:46:56.231Z,95.54
2022-12-19T12:49:46.273Z,94.48
2022-12-19T12:52:18.660Z,95.57
2022-12-19T12:54:48.846Z,95.03
2022-12-19T12:57:39.160Z,95.14
2022-12-19T13:00:18.384Z,94.35
2022-12-19T13:02:50.395Z,95.47
2022-12-19T13:05:32.449Z,95.46
2022-12-19T13:07:59.710Z,95.23
2022-12-19T13:10:32.767Z,95.29
2022-12-19T13:13:09.409Z,95.96
2022-12-19T13:15:46.143Z,95.67
2022-12-19T13:18:34.545Z,95.33
2022-12-19T13:21:04.166Z,95.70
2022-12-19T13:23:45.215Z,95.60
2022-12-19T13:26:52.511Z,94.32
2022-12-19T13:29:31.379Z,95.21
2022-12-19T13:32:15.601Z,94.63
2022-12-19T13:35:20.576Z,95.71
2022-12-19T13:39:58.421Z,95.37
2022-12-19T13:40:33.259Z,95.18
2022-12-19T13:43:24.961Z,95.22
2022-12-19T13:45:54.703Z,95.71
2022-12-19T13:48:46.583Z,95.59
2022-12-19T13:51:14.518Z,95.14
2022-12-19T13:53:43.245Z,94.37
2022-12-19T13:56:17.865Z,95.16
2022-12-19T13:58:59.569Z,95.64
2022-12-19T14:01:37.708Z,95.50
2022-12-19T14:04:08.891Z,94.29
2022-12-19T14:07:05.030Z,94.27
2022-12-19T14:11:26.635Z,94.11
2022-12-19T14:13:50.262Z,94.79
2022-12-19T14:15:39.816Z,94.59
2022-12-19T14:18:43.012Z,95.34
2022-12-19T14:22:03.707Z,94.71
2022-12-19T14:24:13.738Z,94.75
2022-12-19T14:28:21.949Z,96.49
2022-12-19T14:30:26.028Z,95.99
2022-12-19T14:33:44.124Z,95.09
2022-12-19T14:36:12.599Z,96.52
2022-12-19T14:39:24.521Z,96.47
2022-12-19T14:41:08.857Z,96.36
2022-12-19T14:43:59.462Z,96.21
2022-12-19T14:54:07.516Z,96.35
2022-12-19T14:54:11.538Z,97.05
2022-12-19T14:54:31.033Z,97.08
2022-12-19T14:56:14.203Z,96.11
2022-12-19T14:58:55.187Z,97.50
2022-12-19T15:01:30.130Z,96.74
2022-12-19T15:04:53.436Z,97.38
2022-12-19T15:07:12.196Z,97.65
2022-12-19T15:11:06.383Z,97.11
2022-12-19T15:14:49.064Z,97.35
2022-12-19T15:16:03.498Z,98.13
2022-12-19T15:18:33.598Z,97.55
2022-12-19T15:21:04.262Z,98.11
2022-12-19T15:23:31.820Z,97.88
2022-12-19T15:26:11.336Z,98.05
2022-12-19T15:28:43.921Z,97.48
2022-12-19T15:31:17.612Z,97.50
2022-12-19T15:34:07.136Z,98.32
2022-12-19T15:36:31.981Z,97.21
2022-12-19T15:38:59.430Z,97.53
2022-12-19T15:41:26.942Z,98.57
2022-12-19T15:44:03.838Z,97.20
2022-12-19T15:46:32.796Z,98.03
2022-12-19T15:48:59.892Z,98.35
2022-12-19T15:51:27.101Z,98.44
2022-12-19T15:53:56.989Z,97.59
2022-12-19T15:56:36.813Z,97.67
2022-12-19T15:59:05.276Z,97.42
2022-12-19T16:01:33.714Z,97.62
2022-12-19T16:04:01.577Z,97.45
2022-12-19T16:06:28.912Z,97.89
2022-12-19T16:08:56.648Z,97.40
2022-12-19T16:11:24.903Z,97.58
2022-12-19T16:13:58.715Z,97.41
2022-12-19T16:16:25.759Z,98.36
2022-12-19T16:18:52.780Z,97.87
2022-12-19T16:21:33.198Z,96.79
2022-12-19T16:24:01.009Z,97.47
2022-12-19T16:26:37.313Z,97.98
2022-12-19T16:29:06.652Z,97.14
2022-12-19T16:31:33.888Z,97.54
2022-12-19T16:34:02.541Z,97.37
2022-12-19T16:36:29.541Z,97.49
2022-12-19T16:38:56.502Z,97.17
2022-12-19T16:41:25.249Z,97.83
2022-12-19T16:43:53.264Z,97.61
2022-12-19T16:46:30.820Z,97.40
2022-12-19T16:48:58.109Z,96.89
2022-12-19T16:51:30.684Z,97.07
2022-12-19T16:54:00.020Z,96.93
2022-12-19T16:56:32.913Z,97.00
2022-12-19T16:59:03.244Z,97.13
2022-12-19T17:01:30.772Z,96.44
2022-12-19T17:03:58.204Z,96.97
2022-12-19T17:06:25.308Z,96.97
2022-12-19T17:08:52.562Z,96.77
2022-12-19T17:11:22.409Z,96.57
2022-12-19T17:13:52.695Z,96.17
2022-12-19T17:16:20.023Z,96.70
2022-12-19T17:18:47.552Z,96.18
2022-12-19T17:21:32.696Z,95.87
2022-12-19T17:24:02.891Z,96.03
2022-12-19T17:26:29.971Z,95.62
2022-12-19T17:28:59.642Z,95.62
2022-12-19T17:31:29.202Z,96.00
2022-12-19T17:33:58.265Z,95.60
2022-12-19T17:36:37.047Z,96.16
2022-12-19T17:39:19.450Z,95.21
2022-12-19T17:41:47.661Z,95.11
2022-12-19T17:44:14.754Z,95.27
2022-12-19T17:46:42.510Z,95.13
2022-12-19T17:49:36.376Z,94.88
2022-12-19T17:52:03.515Z,95.48
2022-12-19T17:54:30.787Z,95.15
2022-12-19T17:56:58.012Z,95.76
2022-12-19T17:59:25.042Z,95.55
2022-12-19T18:01:52.338Z,95.40
2022-12-19T18:04:21.739Z,95.51
2022-12-19T18:06:49.466Z,95.68
2022-12-19T18:09:21.947Z,95.56
2022-12-19T18:11:50.171Z,95.21
2022-12-19T18:14:18.464Z,94.83
2022-12-19T18:16:46.594Z,95.87
2022-12-19T18:19:24.762Z,95.67
2022-12-19T18:21:51.997Z,95.49
2022-12-19T18:24:19.261Z,95.03
2022-12-19T18:26:46.293Z,95.41
2022-12-19T18:29:13.997Z,94.53
2022-12-19T18:31:48.418Z,94.74
2022-12-19T18:34:24.432Z,94.40
2022-12-19T18:36:53.174Z,95.10
2022-12-19T18:39:26.551Z,94.70
2022-12-19T18:41:54.754Z,95.02
2022-12-19T18:44:23.225Z,95.25
2022-12-19T18:46:51.327Z,94.46
2022-12-19T18:49:19.384Z,94.88
2022-12-19T18:51:46.846Z,95.14
2022-12-19T18:54:19.728Z,95.22
2022-12-19T18:56:46.955Z,95.12
2022-12-19T18:59:14.471Z,94.70
2022-12-19T19:01:45.068Z,94.87
2022-12-19T19:04:14.616Z,95.03
2022-12-19T19:06:48.496Z,94.95
2022-12-19T19:09:19.293Z,94.07
2022-12-19T19:12:09.658Z,94.50
2022-12-19T19:14:36.928Z,95.12
2022-12-19T19:17:05.286Z,95.23
2022-12-19T19:19:33.642Z,95.51
2022-12-19T19:22:01.590Z,94.51
2022-12-19T19:24:28.697Z,94.32
2022-12-19T19:26:55.852Z,94.97
2022-12-19T19:29:22.903Z,94.13
2022-12-19T19:31:52.091Z,94.57
2022-12-19T19:34:26.976Z,94.80
2022-12-19T19:36:57.505Z,94.41
2022-12-19T19:39:25.283Z,94.89
2022-12-19T19:41:53.812Z,94.36
2022-12-19T19:44:25.796Z,94.64
2022-12-19T19:46:53.188Z,94.00
2022-12-19T19:49:21.830Z,94.50
2022-12-19T19:51:49.368Z,94.68
2022-12-19T19:54:16.369Z,94.72
2022-12-19T19:56:43.571Z,95.10
2022-12-19T19:59:10.990Z,94.54
2022-12-19T20:01:38.163Z,94.34
2022-12-19T20:04:05.311Z,94.30
2022-12-19T20:06:32.777Z,94.24
2022-12-19T20:08:59.794Z,95.10
2022-12-19T20:11:26.881Z,94.27
2022-12-19T20:13:54.085Z,94.49
2022-12-19T20:16:21.412Z,94.68
2022-12-19T20:18:52.975Z,94.69
2022-12-19T20:21:20.851Z,94.99
2022-12-19T20:23:48.091Z,94.62
2022-12-19T20:26:16.678Z,94.25
2022-12-19T20:28:50.025Z,93.88
2022-12-19T20:31:23.217Z,94.04
2022-12-19T20:33:53.342Z,94.56
2022-12-19T20:36:20.860Z,94.21
2022-12-19T20:38:48.311Z,94.17
2022-12-19T20:41:16.506Z,94.03
2022-12-19T20:43:43.694Z,93.66
2022-12-19T20:46:14.273Z,93.98
2022-12-19T20:48:42.261Z,94.10
2022-12-19T20:51:10.114Z,94.48
2022-12-19T20:53:38.471Z,93.86
2022-12-19T20:56:07.396Z,93.78
2022-12-19T20:58:36.337Z,94.36
2022-12-19T21:01:10.661Z,94.12
2022-12-19T21:03:38.661Z,94.08
2022-12-19T21:06:07.345Z,94.02
2022-12-19T21:08:35.494Z,94.06
2022-12-19T21:11:03.930Z,94.17
2022-12-19T21:13:31.425Z,93.50
2022-12-19T21:16:02.115Z,93.53
2022-12-19T21:18:30.683Z,94.65
2022-12-19T21:20:59.689Z,94.55
2022-12-19T21:23:27.391Z,94.12
2022-12-19T21:25:58.600Z,93.93
2022-12-19T21:28:26.132Z,94.73
2022-12-19T21:31:04.665Z,94.06
2022-12-19T21:33:32.415Z,94.37
2022-12-19T21:36:06.128Z,95.48
2022-12-19T21:38:33.106Z,94.76
2022-12-19T21:41:03.307Z,94.41
2022-12-19T21:43:31.008Z,94.13
2022-12-19T21:46:12.864Z,94.81
2022-12-19T21:48:42.338Z,94.34
2022-12-19T21:51:10.683Z,94.97
2022-12-19T21:53:38.560Z,94.81
2022-12-19T21:56:32.595Z,94.54
2022-12-19T21:59:02.824Z,95.06
2022-12-19T22:01:30.641Z,95.26
2022-12-19T22:04:02.222Z,95.68
2022-12-19T22:06:32.131Z,96.55
2022-12-19T22:09:00.653Z,95.94
2022-12-19T22:11:30.935Z,95.88
2022-12-19T22:14:01.258Z,96.21
2022-12-19T22:16:29.046Z,95.51
2022-12-19T22:18:56.614Z,96.89
2022-12-19T22:21:24.352Z,97.01
2022-12-19T22:23:52.876Z,95.93
2022-12-19T22:26:24.643Z,97.13
2022-12-19T22:28:53.953Z,95.81
2022-12-19T22:31:22.645Z,95.61
2022-12-19T22:33:52.135Z,97.26
2022-12-19T22:36:27.309Z,95.92
2022-12-19T22:38:56.736Z,95.84
2022-12-19T22:41:24.468Z,96.99
2022-12-19T22:43:52.430Z,96.59
2022-12-19T22:46:26.558Z,96.50
2022-12-19T22:48:56.401Z,96.21
2022-12-19T22:51:23.547Z,96.81
2022-12-19T22:53:50.673Z,96.13
2022-12-19T22:56:22.398Z,97.18
2022-12-19T22:58:51.233Z,96.03
2022-12-19T23:01:25.035Z,97.79
2022-12-19T23:03:54.281Z,96.26
2022-12-19T23:06:22.304Z,97.04
2022-12-19T23:08:49.543Z,96.29
2022-12-19T23:11:20.222Z,97.30
2022-12-19T23:13:48.597Z,96.48
2022-12-19T23:16:16.457Z,96.17
2022-12-19T23:18:43.695Z,95.63
2022-12-19T23:21:21.645Z,95.97
2022-12-19T23:23:50.741Z,96.69
2022-12-19T23:26:30.768Z,97.54
2022-12-19T23:29:00.019Z,96.92
2022-12-19T23:31:27.919Z,96.22
2022-12-19T23:33:55.229Z,96.68
2022-12-19T23:36:44.967Z,96.93
2022-12-19T23:39:11.283Z,96.50
2022-12-19T23:41:39.241Z,96.29
2022-12-19T23:44:06.615Z,97.28
2022-12-19T23:46:33.651Z,96.63
2022-12-19T23:49:00.809Z,96.19
2022-12-19T23:51:28.435Z,97.29
2022-12-19T23:53:56.209Z,96.83
2022-12-19T23:56:24.696Z,95.75
2022-12-19T23:58:51.771Z,97.00
